Time;durP1;ratioP1;P1;durP2;ratioP2;P2;SDS_P1;SDS_P2;PMS_P1;PMS_P2;Temp;Humidity;BMP_temperature;BMP_pressure;BME280_temperature;BME280_humidity;BME280_pressure;Samples;Min_cycle;Max_cycle;Signal;HPM_P1;HPM_P2
2022/10/01 00:01:16;;;;;;;;;;;2.40;99.90;;;;;;5105034;27;19950;-56
2022/10/01 00:03:57;;;;;;;;;;;2.60;99.90;;;;;;5104870;27;19926;-56
2022/10/01 00:06:37;;;;;;;;;;;2.60;99.90;;;;;;5125612;27;19918;-56
2022/10/01 00:09:17;;;;;;;;;;;2.40;99.90;;;;;;5107333;27;19945;-56
2022/10/01 00:11:58;;;;;;;;;;;2.40;99.90;;;;;;5125639;27;19912;-56
2022/10/01 00:14:38;;;;;;;;;;;2.30;99.90;;;;;;5125467;27;19912;-56
2022/10/01 00:17:17;;;;;;;;;;;2.30;99.90;;;;;;5104770;27;19926;-56
2022/10/01 00:19:58;;;;;;;;;;;2.30;99.90;;;;;;5124826;27;19918;-56
2022/10/01 00:22:37;;;;;;;;;;;2.30;99.90;;;;;;5105233;27;19969;-56
2022/10/01 00:25:17;;;;;;;;;;;2.20;99.90;;;;;;5104631;27;20365;-56
2022/10/01 00:27:58;;;;;;;;;;;2.10;99.90;;;;;;5104811;27;19934;-56
2022/10/01 00:30:45;;;;;;;;;;;2.10;99.90;;;;;;5125294;27;19916;-56
2022/10/01 00:33:26;;;;;;;;;;;2.10;99.90;;;;;;5104894;27;20328;-56
2022/10/01 00:36:07;;;;;;;;;;;2.10;99.90;;;;;;5104859;27;19926;-56
2022/10/01 00:38:48;;;;;;;;;;;2.10;99.90;;;;;;5104046;27;19950;-57
2022/10/01 00:41:28;;;;;;;;;;;2.10;99.90;;;;;;5104860;27;20323;-56
2022/10/01 00:44:22;;;;;;;;;;;2.10;99.90;;;;;;5105063;27;19926;-56
2022/10/01 00:47:05;;;;;;;;;;;2.10;99.90;;;;;;5104704;27;20316;-57
2022/10/01 00:49:46;;;;;;;;;;;2.10;99.90;;;;;;5124690;27;19918;-56
2022/10/01 00:52:27;;;;;;;;;;;2.20;99.90;;;;;;5104963;27;19926;-56
2022/10/01 00:55:10;;;;;;;;;;;2.40;99.90;;;;;;5104913;27;19958;-57
2022/10/01 00:57:50;;;;;;;;;;;2.70;99.90;;;;;;5125573;27;19911;-56
2022/10/01 01:00:30;;;;;;;;;;;2.90;99.90;;;;;;5125093;27;19911;-56
2022/10/01 01:03:10;;;;;;;;;;;3.00;99.90;;;;;;5084714;28;20423;-56
2022/10/01 01:05:50;;;;;;;;;;;3.00;99.90;;;;;;5094025;27;19920;-56
2022/10/01 01:08:29;;;;;;;;;;;3.00;99.90;;;;;;5163598;27;19911;-56
2022/10/01 01:11:13;;;;;;;;;;;2.90;99.90;;;;;;5124933;27;19919;-56
2022/10/01 01:13:57;;;;;;;;;;;2.80;99.90;;;;;;5104762;27;20340;-56
2022/10/01 01:16:40;;;;;;;;;;;2.70;99.90;;;;;;5107772;27;19965;-56
2022/10/01 01:19:28;;;;;;;;;;;2.50;99.90;;;;;;5100946;27;19920;-56
2022/10/01 01:22:12;;;;;;;;;;;2.40;99.90;;;;;;5102709;27;19916;-56
2022/10/01 01:24:56;;;;;;;;;;;2.20;99.90;;;;;;5101283;27;19926;-56
2022/10/01 01:27:40;;;;;;;;;;;2.20;99.90;;;;;;5123618;27;19911;-56
2022/10/01 01:30:20;;;;;;;;;;;2.10;99.90;;;;;;5103008;27;19916;-56
2022/10/01 01:33:03;;;;;;;;;;;2.00;99.90;;;;;;5125254;27;19935;-56
2022/10/01 01:35:46;;;;;;;;;;;2.10;99.90;;;;;;5114872;27;19916;-56
2022/10/01 01:38:28;;;;;;;;;;;2.00;99.90;;;;;;5124472;27;19916;-56
2022/10/01 01:41:10;;;;;;;;;;;2.00;99.90;;;;;;5104390;27;19926;-57
2022/10/01 01:43:53;;;;;;;;;;;1.90;99.90;;;;;;5145355;27;20222;-56
2022/10/01 01:46:35;;;;;;;;;;;1.80;99.90;;;;;;5123038;27;19912;-56
2022/10/01 01:49:16;;;;;;;;;;;1.80;99.90;;;;;;5104029;27;19926;-56
2022/10/01 01:51:59;;;;;;;;;;;1.80;99.90;;;;;;5125436;27;20377;-56
2022/10/01 01:54:40;;;;;;;;;;;1.80;99.90;;;;;;5125220;27;20385;-56
2022/10/01 01:57:19;;;;;;;;;;;1.80;99.90;;;;;;5104815;27;19916;-56
2022/10/01 01:59:59;;;;;;;;;;;1.80;99.90;;;;;;5124943;27;19912;-56
2022/10/01 02:02:40;;;;;;;;;;;1.80;99.90;;;;;;5105021;27;19946;-56
2022/10/01 02:05:22;;;;;;;;;;;1.80;99.90;;;;;;5153931;27;19911;-56
2022/10/01 02:08:17;;;;;;;;;;;1.80;99.90;;;;;;5125625;27;19911;-56
2022/10/01 02:11:04;;;;;;;;;;;1.80;99.90;;;;;;5104694;27;19912;-56
2022/10/01 02:13:49;;;;;;;;;;;1.80;99.90;;;;;;5125257;27;19911;-56
2022/10/01 02:16:30;;;;;;;;;;;1.80;99.90;;;;;;5125226;27;19915;-56
2022/10/01 02:19:16;;;;;;;;;;;1.80;99.90;;;;;;5104164;27;19912;-56
2022/10/01 02:21:59;;;;;;;;;;;1.80;99.90;;;;;;5125434;27;19913;-56
2022/10/01 02:24:41;;;;;;;;;;;1.70;99.90;;;;;;5105053;27;19916;-56
2022/10/01 02:27:24;;;;;;;;;;;1.80;99.90;;;;;;5104582;27;19957;-56
2022/10/01 02:30:06;;;;;;;;;;;1.80;99.90;;;;;;5104353;27;19916;-56
2022/10/01 02:32:47;;;;;;;;;;;1.80;99.90;;;;;;5104597;27;19912;-56
2022/10/01 02:35:29;;;;;;;;;;;1.90;99.90;;;;;;5117151;27;19912;-56
2022/10/01 02:38:22;;;;;;;;;;;1.90;99.90;;;;;;5125126;27;20280;-57
2022/10/01 02:41:05;;;;;;;;;;;1.90;99.90;;;;;;5124751;27;19915;-56
2022/10/01 02:43:52;;;;;;;;;;;2.00;99.90;;;;;;5105193;27;19920;-57
2022/10/01 02:46:35;;;;;;;;;;;2.10;99.90;;;;;;5123888;27;19926;-56
2022/10/01 02:49:15;;;;;;;;;;;2.00;99.90;;;;;;5104567;27;19919;-56
2022/10/01 02:51:59;;;;;;;;;;;2.10;99.90;;;;;;5156461;27;20380;-56
2022/10/01 02:54:44;;;;;;;;;;;2.40;99.90;;;;;;5104689;27;20328;-56
2022/10/01 02:57:26;;;;;;;;;;;3.10;99.90;;;;;;5105434;27;19926;-57
2022/10/01 03:00:07;;;;;;;;;;;3.70;99.90;;;;;;5104538;27;19966;-57
2022/10/01 03:02:47;;;;;;;;;;;4.30;99.90;;;;;;5104852;27;19927;-56
2022/10/01 03:05:27;;;;;;;;;;;4.50;99.90;;;;;;5097734;27;19950;-56
2022/10/01 03:08:06;;;;;;;;;;;4.60;99.90;;;;;;5105114;27;19912;-57
2022/10/01 03:10:46;;;;;;;;;;;4.70;99.90;;;;;;5104329;27;20497;-57
2022/10/01 03:13:26;;;;;;;;;;;4.80;99.90;;;;;;5155547;27;19915;-56
2022/10/01 03:16:06;;;;;;;;;;;4.80;99.90;;;;;;5105068;27;19930;-56
2022/10/01 03:18:46;;;;;;;;;;;4.70;99.90;;;;;;5084614;28;19934;-56
2022/10/01 03:21:26;;;;;;;;;;;4.70;99.90;;;;;;5102975;27;19942;-56
2022/10/01 03:24:06;;;;;;;;;;;4.70;99.90;;;;;;5125481;27;19961;-57
2022/10/01 03:26:45;;;;;;;;;;;4.90;99.90;;;;;;5086100;27;20775;-56
2022/10/01 03:29:25;;;;;;;;;;;5.10;99.90;;;;;;5124609;27;19911;-56
2022/10/01 03:32:05;;;;;;;;;;;5.10;99.90;;;;;;5084797;28;19955;-56
2022/10/01 03:34:45;;;;;;;;;;;5.10;99.90;;;;;;5125285;27;19915;-56
2022/10/01 03:37:25;;;;;;;;;;;5.00;99.90;;;;;;5104809;27;19961;-57
2022/10/01 03:40:05;;;;;;;;;;;5.00;99.90;;;;;;5104432;27;20427;-57
2022/10/01 03:42:46;;;;;;;;;;;4.90;99.90;;;;;;5105426;27;19962;-56
2022/10/01 03:45:26;;;;;;;;;;;5.00;99.90;;;;;;5115803;27;19916;-57
2022/10/01 03:48:05;;;;;;;;;;;5.00;99.90;;;;;;5105017;27;20352;-56
2022/10/01 03:50:53;;;;;;;;;;;5.10;99.90;;;;;;5124579;27;19919;-56
2022/10/01 03:53:33;;;;;;;;;;;5.30;99.90;;;;;;5105418;27;19912;-56
2022/10/01 03:56:13;;;;;;;;;;;5.40;99.90;;;;;;5161476;27;19925;-56
2022/10/01 03:58:53;;;;;;;;;;;5.60;99.90;;;;;;5124627;27;19912;-56
2022/10/01 04:01:33;;;;;;;;;;;5.80;99.90;;;;;;5126389;27;19922;-56
2022/10/01 04:04:13;;;;;;;;;;;5.80;99.90;;;;;;5104893;27;20351;-56
2022/10/01 04:06:54;;;;;;;;;;;5.80;99.90;;;;;;5084285;28;19912;-56
2022/10/01 04:09:36;;;;;;;;;;;5.80;99.90;;;;;;5124753;27;20023;-57
2022/10/01 04:12:18;;;;;;;;;;;6.10;99.90;;;;;;5104990;27;19912;-57
2022/10/01 04:14:58;;;;;;;;;;;6.20;99.90;;;;;;5125393;27;20373;-56
2022/10/01 04:17:38;;;;;;;;;;;6.30;99.90;;;;;;5104909;27;19912;-56
2022/10/01 04:20:18;;;;;;;;;;;6.20;99.90;;;;;;5125526;27;19912;-56
2022/10/01 04:22:58;;;;;;;;;;;6.30;99.90;;;;;;5125695;27;19912;-56
2022/10/01 04:25:37;;;;;;;;;;;6.30;99.90;;;;;;5104695;27;19912;-56
2022/10/01 04:28:17;;;;;;;;;;;6.30;99.90;;;;;;5125139;27;20488;-56
2022/10/01 04:33:51;;;;;;;;;;;6.30;99.90;;;;;;5104772;27;19920;-55
2022/10/01 04:36:31;;;;;;;;;;;6.30;99.90;;;;;;5150979;27;20326;-56
2022/10/01 04:39:11;;;;;;;;;;;6.30;99.90;;;;;;5097711;27;19930;-56
2022/10/01 04:41:51;;;;;;;;;;;6.30;99.90;;;;;;5126184;27;19916;-56
2022/10/01 04:44:31;;;;;;;;;;;6.30;99.90;;;;;;5124097;27;19912;-55
2022/10/01 04:47:10;;;;;;;;;;;6.40;99.90;;;;;;5104622;27;19946;-56
2022/10/01 04:49:50;;;;;;;;;;;6.50;99.90;;;;;;5125177;27;20315;-56
2022/10/01 04:52:30;;;;;;;;;;;6.50;99.90;;;;;;5125954;27;20347;-56
2022/10/01 04:55:10;;;;;;;;;;;6.60;99.90;;;;;;5105065;27;19916;-56
2022/10/01 04:57:50;;;;;;;;;;;6.80;99.90;;;;;;5123025;27;19953;-56
2022/10/01 05:00:30;;;;;;;;;;;6.90;99.90;;;;;;5124637;27;19920;-56
2022/10/01 05:03:09;;;;;;;;;;;7.00;99.90;;;;;;5124929;27;19916;-56
2022/10/01 05:05:49;;;;;;;;;;;7.10;99.90;;;;;;5094071;27;20340;-56
2022/10/01 05:08:30;;;;;;;;;;;7.10;99.90;;;;;;5123345;27;19920;-56
2022/10/01 05:11:11;;;;;;;;;;;7.20;99.90;;;;;;5125149;27;19911;-56
2022/10/01 05:14:02;;;;;;;;;;;7.20;99.90;;;;;;5155680;27;19911;-56
2022/10/01 05:16:42;;;;;;;;;;;7.20;99.90;;;;;;5105107;27;20432;-56
2022/10/01 05:19:22;;;;;;;;;;;7.10;99.90;;;;;;5124683;27;20133;-56
2022/10/01 05:22:03;;;;;;;;;;;7.10;99.90;;;;;;5105020;27;19912;-56
2022/10/01 05:24:43;;;;;;;;;;;7.10;99.90;;;;;;5124956;27;19916;-56
2022/10/01 05:27:23;;;;;;;;;;;7.20;99.90;;;;;;5103461;27;19934;-56
2022/10/01 05:30:03;;;;;;;;;;;7.20;99.90;;;;;;5124970;27;19912;-57
2022/10/01 05:32:42;;;;;;;;;;;7.30;99.90;;;;;;5059277;27;19921;-56
2022/10/01 05:35:22;;;;;;;;;;;7.40;99.90;;;;;;5124780;27;19911;-56
2022/10/01 05:38:02;;;;;;;;;;;7.40;99.90;;;;;;5125394;27;20315;-56
2022/10/01 05:40:44;;;;;;;;;;;7.40;99.90;;;;;;5123907;27;20379;-56
2022/10/01 05:43:25;;;;;;;;;;;7.40;99.90;;;;;;5118568;27;20367;-56
2022/10/01 05:46:05;;;;;;;;;;;7.40;99.90;;;;;;5108702;27;20417;-56
2022/10/01 05:48:45;;;;;;;;;;;7.40;99.90;;;;;;5102583;27;20108;-56
2022/10/01 05:51:25;;;;;;;;;;;7.40;99.90;;;;;;5104643;27;19912;-56
2022/10/01 05:54:04;;;;;;;;;;;7.30;99.90;;;;;;5124694;27;19912;-56
2022/10/01 05:56:44;;;;;;;;;;;7.40;99.90;;;;;;5104930;27;19924;-56
2022/10/01 05:59:24;;;;;;;;;;;7.40;99.90;;;;;;5102811;27;19926;-56
2022/10/01 06:02:04;;;;;;;;;;;7.40;99.90;;;;;;5103963;27;19926;-56
2022/10/01 06:04:44;;;;;;;;;;;7.40;99.90;;;;;;5094369;27;19916;-56
2022/10/01 06:07:25;;;;;;;;;;;7.50;99.90;;;;;;5124374;27;19916;-56
2022/10/01 06:10:06;;;;;;;;;;;7.50;99.90;;;;;;5084197;28;20145;-56
2022/10/01 06:12:47;;;;;;;;;;;7.60;99.90;;;;;;5122742;27;19916;-56
2022/10/01 06:15:28;;;;;;;;;;;7.60;99.90;;;;;;5096259;27;19927;-56
2022/10/01 06:18:08;;;;;;;;;;;7.70;99.90;;;;;;5125375;27;19912;-56
2022/10/01 06:20:49;;;;;;;;;;;7.80;99.90;;;;;;5084152;28;20411;-56
2022/10/01 06:23:29;;;;;;;;;;;7.90;99.90;;;;;;5105270;27;19926;-56
2022/10/01 06:26:09;;;;;;;;;;;7.90;99.90;;;;;;5111807;27;20473;-56
2022/10/01 06:28:50;;;;;;;;;;;7.90;99.90;;;;;;5151471;27;19956;-56
2022/10/01 06:31:30;;;;;;;;;;;7.90;99.90;;;;;;5121847;27;20210;-56
2022/10/01 06:34:11;;;;;;;;;;;8.00;99.90;;;;;;5116268;27;19945;-56
2022/10/01 06:36:51;;;;;;;;;;;8.00;99.90;;;;;;5100258;27;20576;-56
2022/10/01 06:39:31;;;;;;;;;;;8.10;99.90;;;;;;5106016;27;20393;-56
2022/10/01 06:42:11;;;;;;;;;;;8.20;99.90;;;;;;5123793;27;19912;-57
2022/10/01 06:44:51;;;;;;;;;;;8.20;99.90;;;;;;5114561;27;19912;-56
2022/10/01 06:47:30;;;;;;;;;;;8.30;99.90;;;;;;5124089;27;19926;-57
2022/10/01 06:50:11;;;;;;;;;;;8.40;99.90;;;;;;5123322;27;19912;-56
2022/10/01 06:52:50;;;;;;;;;;;8.50;99.90;;;;;;5103673;27;20415;-56
2022/10/01 06:55:31;;;;;;;;;;;8.60;99.90;;;;;;5103572;27;20162;-56
2022/10/01 06:58:13;;;;;;;;;;;8.60;99.90;;;;;;5123720;27;19912;-56
2022/10/01 07:00:57;;;;;;;;;;;8.70;99.90;;;;;;5106266;27;19912;-56
2022/10/01 07:03:37;;;;;;;;;;;8.80;99.90;;;;;;5103819;27;19953;-56
2022/10/01 07:06:17;;;;;;;;;;;8.90;99.90;;;;;;5103249;27;19965;-56
2022/10/01 07:08:57;;;;;;;;;;;8.90;99.90;;;;;;5102198;27;20440;-56
2022/10/01 07:11:40;;;;;;;;;;;8.90;99.90;;;;;;5103601;27;19912;-56
2022/10/01 07:14:20;;;;;;;;;;;8.90;99.90;;;;;;5104831;27;19916;-56
2022/10/01 07:17:00;;;;;;;;;;;8.90;99.90;;;;;;5103737;27;20239;-55
2022/10/01 07:19:40;;;;;;;;;;;8.90;99.90;;;;;;5102971;27;19942;-56
2022/10/01 07:22:22;;;;;;;;;;;9.00;99.90;;;;;;5104664;27;19916;-56
2022/10/01 07:25:03;;;;;;;;;;;9.00;99.90;;;;;;5103991;27;19970;-56
2022/10/01 07:27:42;;;;;;;;;;;9.10;99.90;;;;;;5082920;28;19970;-56
2022/10/01 07:30:23;;;;;;;;;;;9.20;99.90;;;;;;5103718;27;20527;-56
2022/10/01 07:33:04;;;;;;;;;;;9.30;99.90;;;;;;5103386;27;19930;-56
2022/10/01 07:35:46;;;;;;;;;;;9.40;99.90;;;;;;5155565;27;19916;-56
2022/10/01 07:38:26;;;;;;;;;;;9.40;99.90;;;;;;5124335;27;19911;-56
2022/10/01 07:41:06;;;;;;;;;;;9.50;99.90;;;;;;5103082;27;19981;-56
2022/10/01 07:43:47;;;;;;;;;;;9.50;99.90;;;;;;5125217;27;19916;-56
2022/10/01 07:46:27;;;;;;;;;;;9.50;99.90;;;;;;5125400;27;19912;-56
2022/10/01 07:49:08;;;;;;;;;;;9.70;99.90;;;;;;5124920;27;19916;-56
2022/10/01 07:51:48;;;;;;;;;;;9.80;99.90;;;;;;5125738;27;19916;-56
2022/10/01 07:54:29;;;;;;;;;;;9.90;99.90;;;;;;5105227;27;19926;-57
2022/10/01 07:57:08;;;;;;;;;;;10.00;99.90;;;;;;5125439;27;19912;-56
2022/10/01 07:59:48;;;;;;;;;;;10.20;99.90;;;;;;5124849;27;19916;-56
2022/10/01 08:02:28;;;;;;;;;;;10.50;99.90;;;;;;5125789;27;20327;-56
2022/10/01 08:05:18;;;;;;;;;;;10.80;99.90;;;;;;5105026;27;19912;-56
2022/10/01 08:07:59;;;;;;;;;;;11.10;99.90;;;;;;5104966;27;20381;-56
2022/10/01 08:10:40;;;;;;;;;;;11.20;99.90;;;;;;5104653;27;19926;-56
2022/10/01 08:13:23;;;;;;;;;;;11.30;99.90;;;;;;5126017;27;19919;-56
2022/10/01 08:16:04;;;;;;;;;;;11.30;99.90;;;;;;5104942;27;19919;-56
2022/10/01 08:18:45;;;;;;;;;;;11.40;99.90;;;;;;5104655;27;19916;-56
2022/10/01 08:21:25;;;;;;;;;;;11.40;99.90;;;;;;5125720;27;19916;-56
2022/10/01 08:24:05;;;;;;;;;;;11.40;99.90;;;;;;5105113;27;19959;-56
2022/10/01 08:26:44;;;;;;;;;;;11.50;99.90;;;;;;5104612;27;20359;-54
2022/10/01 08:29:24;;;;;;;;;;;11.60;99.90;;;;;;5104476;27;20442;-56
2022/10/01 08:32:04;;;;;;;;;;;11.70;99.90;;;;;;5105062;27;19926;-56
2022/10/01 08:34:44;;;;;;;;;;;11.80;99.90;;;;;;5125525;27;19911;-56
2022/10/01 08:37:26;;;;;;;;;;;11.80;99.90;;;;;;5125568;27;19912;-55
2022/10/01 08:40:08;;;;;;;;;;;11.90;99.90;;;;;;5123783;27;19912;-56
2022/10/01 08:42:50;;;;;;;;;;;11.80;99.90;;;;;;5125819;27;20308;-56
2022/10/01 08:45:34;;;;;;;;;;;11.60;99.90;;;;;;5117514;27;20311;-56
2022/10/01 08:48:18;;;;;;;;;;;11.40;99.90;;;;;;5125447;27;19911;-56
2022/10/01 08:51:02;;;;;;;;;;;11.30;99.90;;;;;;5104696;27;19912;-56
2022/10/01 08:53:45;;;;;;;;;;;11.30;99.90;;;;;;5105084;27;19919;-56
2022/10/01 08:56:27;;;;;;;;;;;11.30;99.90;;;;;;5104959;27;19926;-56
2022/10/01 08:59:14;;;;;;;;;;;11.40;99.90;;;;;;5104034;27;20335;-56
2022/10/01 09:01:54;;;;;;;;;;;11.50;99.90;;;;;;5166562;22;19923;-56
2022/10/01 09:04:34;;;;;;;;;;;11.50;99.90;;;;;;5105258;27;19926;-56
2022/10/01 09:07:18;;;;;;;;;;;11.50;99.90;;;;;;5125388;27;19939;-56
2022/10/01 09:10:00;;;;;;;;;;;11.50;99.90;;;;;;5125067;27;20326;-56
2022/10/01 09:12:47;;;;;;;;;;;11.50;99.90;;;;;;5105336;27;20319;-56
2022/10/01 09:15:30;;;;;;;;;;;11.60;99.90;;;;;;5104491;27;19961;-57
2022/10/01 09:18:15;;;;;;;;;;;11.70;99.90;;;;;;5104960;27;19961;-56
2022/10/01 09:20:57;;;;;;;;;;;11.80;99.90;;;;;;5103677;27;19961;-55
2022/10/01 09:23:39;;;;;;;;;;;12.00;99.90;;;;;;5104832;27;19912;-55
2022/10/01 09:26:20;;;;;;;;;;;12.00;99.90;;;;;;5104799;27;19934;-57
2022/10/01 09:29:00;;;;;;;;;;;12.00;99.90;;;;;;5148812;27;19952;-57
2022/10/01 09:31:43;;;;;;;;;;;12.20;99.90;;;;;;5105093;27;19926;-56
2022/10/01 09:34:28;;;;;;;;;;;12.20;99.90;;;;;;5104910;27;19935;-56
2022/10/01 09:37:13;;;;;;;;;;;12.30;99.90;;;;;;5104588;27;19934;-56
2022/10/01 09:40:03;;;;;;;;;;;12.30;99.90;;;;;;5123195;27;19950;-56
2022/10/01 09:42:43;;;;;;;;;;;12.40;99.90;;;;;;5106046;27;19930;-54
2022/10/01 09:45:23;;;;;;;;;;;12.40;99.90;;;;;;5104364;27;19926;-56
2022/10/01 09:48:12;;;;;;;;;;;12.40;99.90;;;;;;5126130;27;19969;-55
2022/10/01 09:50:54;;;;;;;;;;;12.50;99.90;;;;;;5104426;27;20323;-55
2022/10/01 09:53:36;;;;;;;;;;;12.60;99.90;;;;;;5105482;27;20323;-57
2022/10/01 09:56:22;;;;;;;;;;;12.80;99.90;;;;;;5124772;27;19916;-56
2022/10/01 09:59:06;;;;;;;;;;;12.90;99.90;;;;;;5064376;28;20390;-56
2022/10/01 10:01:50;;;;;;;;;;;12.90;99.90;;;;;;5105499;27;19926;-57
2022/10/01 10:04:31;;;;;;;;;;;12.90;99.90;;;;;;5158779;27;19915;-57
2022/10/01 10:07:16;;;;;;;;;;;13.00;99.90;;;;;;5104542;27;20316;-56
2022/10/01 10:09:56;;;;;;;;;;;13.10;99.90;;;;;;5104358;27;19926;-56
2022/10/01 10:12:36;;;;;;;;;;;13.10;99.90;;;;;;5104240;27;19926;-57
2022/10/01 10:15:17;;;;;;;;;;;13.00;99.90;;;;;;5102215;27;19924;-56
2022/10/01 10:17:58;;;;;;;;;;;12.80;99.90;;;;;;5103921;27;19912;-56
2022/10/01 10:20:40;;;;;;;;;;;12.70;99.90;;;;;;5084199;27;19912;-56
2022/10/01 10:23:21;;;;;;;;;;;12.40;99.90;;;;;;5104731;27;19912;-56
2022/10/01 10:26:02;;;;;;;;;;;12.30;99.90;;;;;;5084414;28;19916;-57
2022/10/01 10:28:44;;;;;;;;;;;12.20;99.90;;;;;;5104900;27;19926;-55
2022/10/01 10:31:25;;;;;;;;;;;12.10;99.90;;;;;;5106195;27;20327;-56
2022/10/01 10:34:08;;;;;;;;;;;12.00;99.90;;;;;;5104822;27;19953;-56
2022/10/01 10:36:55;;;;;;;;;;;11.90;99.90;;;;;;5093073;27;19930;-56
2022/10/01 10:39:36;;;;;;;;;;;11.80;99.90;;;;;;5101569;27;19916;-56
2022/10/01 10:42:17;;;;;;;;;;;11.70;99.90;;;;;;5104792;27;19945;-57
2022/10/01 10:45:01;;;;;;;;;;;11.70;99.90;;;;;;5104312;27;19930;-58
2022/10/01 10:47:45;;;;;;;;;;;11.80;99.90;;;;;;5140710;27;19915;-57
2022/10/01 10:50:37;;;;;;;;;;;11.60;99.90;;;;;;5123796;27;19915;-58
2022/10/01 10:53:21;;;;;;;;;;;11.50;99.90;;;;;;5144871;27;19916;-58
2022/10/01 10:56:02;;;;;;;;;;;11.40;99.90;;;;;;5122523;27;19923;-57
2022/10/01 10:58:44;;;;;;;;;;;11.30;99.90;;;;;;5084686;27;19927;-57
2022/10/01 11:01:28;;;;;;;;;;;11.20;99.90;;;;;;5100508;27;19950;-56
2022/10/01 11:04:18;;;;;;;;;;;11.10;99.90;;;;;;5165059;27;19929;-57
2022/10/01 11:07:00;;;;;;;;;;;11.10;99.90;;;;;;5105042;27;19926;-56
2022/10/01 11:09:44;;;;;;;;;;;11.00;99.90;;;;;;5100186;27;19931;-57
2022/10/01 11:12:34;;;;;;;;;;;11.00;99.90;;;;;;5090895;27;19916;-57
2022/10/01 11:15:20;;;;;;;;;;;10.90;99.90;;;;;;5102903;27;20355;-56
2022/10/01 11:18:12;;;;;;;;;;;10.70;99.90;;;;;;5104598;27;19933;-56
2022/10/01 11:20:59;;;;;;;;;;;10.70;99.90;;;;;;5082943;28;19916;-56
2022/10/01 11:23:52;;;;;;;;;;;10.60;99.90;;;;;;5105075;27;19912;-56
2022/10/01 11:26:37;;;;;;;;;;;10.50;99.90;;;;;;5124916;27;19912;-56
2022/10/01 11:29:24;;;;;;;;;;;10.50;99.90;;;;;;5101781;27;19912;-56
2022/10/01 11:32:14;;;;;;;;;;;10.50;99.90;;;;;;5103826;27;20323;-56
2022/10/01 11:35:03;;;;;;;;;;;10.50;99.90;;;;;;5112941;27;19912;-57
2022/10/01 11:37:54;;;;;;;;;;;10.60;99.90;;;;;;5104271;27;19926;-56
2022/10/01 11:40:36;;;;;;;;;;;10.80;99.90;;;;;;5103662;27;19954;-56
2022/10/01 11:43:20;;;;;;;;;;;11.00;99.90;;;;;;5164792;27;19927;-53
2022/10/01 11:46:03;;;;;;;;;;;11.20;99.90;;;;;;5093348;27;19924;-56
2022/10/01 11:48:46;;;;;;;;;;;11.20;99.90;;;;;;5124964;27;19916;-56
2022/10/01 11:51:30;;;;;;;;;;;11.20;99.90;;;;;;5125216;27;20183;-57
2022/10/01 11:54:14;;;;;;;;;;;11.10;99.90;;;;;;5105047;27;19946;-56
2022/10/01 11:59:56;;;;;;;;;;;11.20;99.90;;;;;;5105244;27;19973;-56
2022/10/01 12:02:40;;;;;;;;;;;11.00;99.90;;;;;;5105808;27;19916;-56
2022/10/01 12:05:21;;;;;;;;;;;11.00;99.90;;;;;;5105642;27;19950;-55
2022/10/01 12:08:05;;;;;;;;;;;11.10;99.90;;;;;;5105126;27;19912;-55
2022/10/01 12:10:49;;;;;;;;;;;11.20;99.90;;;;;;5104368;27;19961;-56
2022/10/01 12:13:31;;;;;;;;;;;11.10;99.90;;;;;;5105701;27;19934;-56
2022/10/01 12:16:14;;;;;;;;;;;11.10;99.90;;;;;;5104410;27;19926;-56
2022/10/01 12:18:57;;;;;;;;;;;11.10;99.90;;;;;;5084054;28;19931;-57
2022/10/01 12:21:41;;;;;;;;;;;11.20;99.90;;;;;;5096463;27;19921;-56
2022/10/01 12:24:25;;;;;;;;;;;11.40;99.90;;;;;;5125837;27;19916;-56
2022/10/01 12:27:18;;;;;;;;;;;11.60;99.90;;;;;;5104434;27;19953;-57
2022/10/01 12:30:01;;;;;;;;;;;11.70;99.90;;;;;;5125028;27;19915;-56
2022/10/01 12:32:48;;;;;;;;;;;11.70;99.90;;;;;;5089495;27;20362;-56
2022/10/01 12:35:34;;;;;;;;;;;11.80;99.90;;;;;;5124273;27;19912;-56
2022/10/01 12:38:19;;;;;;;;;;;11.90;99.90;;;;;;5101680;27;20419;-57
2022/10/01 12:41:04;;;;;;;;;;;12.30;99.90;;;;;;5102754;27;19985;-56
2022/10/01 12:43:53;;;;;;;;;;;12.80;99.90;;;;;;5104421;27;20381;-57
2022/10/01 12:46:38;;;;;;;;;;;13.20;99.90;;;;;;5122169;27;19916;-56
2022/10/01 12:49:23;;;;;;;;;;;13.40;99.90;;;;;;5103840;27;19920;-56
2022/10/01 12:52:10;;;;;;;;;;;13.40;99.90;;;;;;5104188;27;20217;-57
2022/10/01 12:55:05;;;;;;;;;;;13.40;99.90;;;;;;5104521;27;19965;-56
2022/10/01 12:57:48;;;;;;;;;;;13.30;99.90;;;;;;5104971;27;19924;-58
2022/10/01 13:00:30;;;;;;;;;;;13.00;99.90;;;;;;5124920;27;19916;-57
2022/10/01 13:03:27;;;;;;;;;;;12.60;99.90;;;;;;5125491;27;19929;-58
2022/10/01 13:06:14;;;;;;;;;;;12.40;99.90;;;;;;5160997;27;19911;-56
2022/10/01 13:09:08;;;;;;;;;;;12.30;99.90;;;;;;5157161;27;19911;-56
2022/10/01 13:12:00;;;;;;;;;;;12.10;99.90;;;;;;5105609;27;19969;-56
2022/10/01 13:14:43;;;;;;;;;;;12.20;99.90;;;;;;5158314;27;20443;-58
2022/10/01 13:17:26;;;;;;;;;;;12.20;99.90;;;;;;5105428;27;20315;-56
2022/10/01 13:20:12;;;;;;;;;;;12.20;99.90;;;;;;5160846;27;20318;-57
2022/10/01 13:22:57;;;;;;;;;;;12.10;99.90;;;;;;5088916;27;19924;-55
2022/10/01 13:25:41;;;;;;;;;;;12.00;99.90;;;;;;5094857;27;20418;-57
2022/10/01 13:28:25;;;;;;;;;;;11.80;99.90;;;;;;5102352;27;19934;-56
2022/10/01 13:31:13;;;;;;;;;;;11.70;99.90;;;;;;5125675;27;19912;-58
2022/10/01 13:33:56;;;;;;;;;;;11.70;99.90;;;;;;5142091;27;19922;-55
2022/10/01 13:36:36;;;;;;;;;;;11.60;99.90;;;;;;5083202;28;19912;-56
2022/10/01 13:39:22;;;;;;;;;;;11.60;99.90;;;;;;5124672;27;19918;-56
2022/10/01 13:42:04;;;;;;;;;;;11.50;99.90;;;;;;5082693;28;19920;-56
2022/10/01 13:44:45;;;;;;;;;;;11.40;99.90;;;;;;5083220;28;19912;-57
2022/10/01 13:47:25;;;;;;;;;;;11.40;99.90;;;;;;5084610;28;19916;-56
2022/10/01 13:50:06;;;;;;;;;;;11.50;99.90;;;;;;5124475;27;19912;-56
2022/10/01 13:52:46;;;;;;;;;;;11.60;99.90;;;;;;5088183;27;19920;-56
2022/10/01 13:55:30;;;;;;;;;;;11.50;99.90;;;;;;5104672;27;19930;-56
2022/10/01 13:58:22;;;;;;;;;;;11.50;99.90;;;;;;5105111;27;19926;-56
2022/10/01 14:01:02;;;;;;;;;;;11.50;99.90;;;;;;5102011;27;19916;-56
2022/10/01 14:03:49;;;;;;;;;;;11.50;99.90;;;;;;5124732;27;20429;-56
2022/10/01 14:06:30;;;;;;;;;;;11.70;99.90;;;;;;5105261;27;19912;-56
2022/10/01 14:09:13;;;;;;;;;;;11.70;99.90;;;;;;5123263;27;20381;-56
2022/10/01 14:17:54;;;;;;;;;;;11.60;99.90;;;;;;5122339;27;20272;-55
2022/10/01 14:20:45;;;;;;;;;;;11.50;99.90;;;;;;5103618;27;20134;-57
2022/10/01 14:23:28;;;;;;;;;;;11.50;99.90;;;;;;5105558;27;20266;-56
2022/10/01 14:26:14;;;;;;;;;;;11.40;99.90;;;;;;5104649;27;19930;-56
2022/10/01 14:28:58;;;;;;;;;;;11.30;99.90;;;;;;5112455;27;19925;-57
2022/10/01 14:31:43;;;;;;;;;;;11.20;99.90;;;;;;5120380;27;19916;-56
2022/10/01 14:34:36;;;;;;;;;;;11.10;99.90;;;;;;5124473;27;19922;-57
2022/10/01 14:37:17;;;;;;;;;;;11.10;99.90;;;;;;5104558;27;19930;-57
2022/10/01 14:40:07;;;;;;;;;;;11.00;99.90;;;;;;5087416;27;20313;-57
2022/10/01 14:42:57;;;;;;;;;;;11.00;99.90;;;;;;5087494;27;19966;-56
2022/10/01 14:45:37;;;;;;;;;;;11.00;99.90;;;;;;5105353;27;19926;-54
2022/10/01 14:48:17;;;;;;;;;;;11.00;99.90;;;;;;5100487;27;19934;-55
2022/10/01 14:50:57;;;;;;;;;;;11.00;99.90;;;;;;5110851;27;19912;-55
2022/10/01 14:53:42;;;;;;;;;;;11.00;99.90;;;;;;5102818;27;19927;-57
2022/10/01 14:56:23;;;;;;;;;;;11.00;99.90;;;;;;5106888;27;19927;-55
2022/10/01 14:59:04;;;;;;;;;;;11.00;99.90;;;;;;5122204;27;19912;-57
2022/10/01 15:01:53;;;;;;;;;;;11.00;99.90;;;;;;5105096;27;19930;-57
2022/10/01 15:04:34;;;;;;;;;;;10.90;99.90;;;;;;5098627;27;19966;-56
2022/10/01 15:07:15;;;;;;;;;;;10.90;99.90;;;;;;5082669;27;19977;-56
2022/10/01 15:10:05;;;;;;;;;;;10.90;99.90;;;;;;5104452;27;19957;-56
2022/10/01 15:12:44;;;;;;;;;;;10.80;99.90;;;;;;5105180;27;19962;-56
2022/10/01 15:15:33;;;;;;;;;;;10.80;99.90;;;;;;5096546;27;20331;-56
2022/10/01 15:18:14;;;;;;;;;;;10.80;99.90;;;;;;5084660;27;19927;-56
2022/10/01 15:20:58;;;;;;;;;;;10.80;99.90;;;;;;5125197;27;19927;-56
2022/10/01 15:23:40;;;;;;;;;;;10.80;99.90;;;;;;5126031;27;19922;-56
2022/10/01 15:26:22;;;;;;;;;;;10.90;99.90;;;;;;5105935;27;19954;-56
2022/10/01 15:29:04;;;;;;;;;;;10.90;99.90;;;;;;5102232;27;19942;-56
2022/10/01 15:31:45;;;;;;;;;;;10.90;99.90;;;;;;5125307;27;19912;-56
2022/10/01 15:34:26;;;;;;;;;;;11.00;99.90;;;;;;5104475;27;19930;-56
2022/10/01 15:37:07;;;;;;;;;;;11.00;99.90;;;;;;5103977;27;20397;-56
2022/10/01 15:39:49;;;;;;;;;;;11.00;99.90;;;;;;5102018;27;19926;-56
2022/10/01 15:42:31;;;;;;;;;;;11.10;99.90;;;;;;5101468;27;19934;-56
2022/10/01 15:45:28;;;;;;;;;;;11.10;99.90;;;;;;5107542;27;19912;-56
2022/10/01 15:48:19;;;;;;;;;;;11.10;99.90;;;;;;5103954;27;20385;-57
2022/10/01 15:51:01;;;;;;;;;;;11.10;99.90;;;;;;5118511;27;19912;-56
2022/10/01 15:53:41;;;;;;;;;;;11.10;99.90;;;;;;5105450;27;19930;-57
2022/10/01 15:56:22;;;;;;;;;;;11.00;99.90;;;;;;5102540;27;19957;-56
2022/10/01 15:59:10;;;;;;;;;;;11.00;99.90;;;;;;5104439;27;19915;-56
2022/10/01 16:01:50;;;;;;;;;;;11.00;99.90;;;;;;5096180;27;19917;-56
2022/10/01 16:04:30;;;;;;;;;;;11.00;99.90;;;;;;5104863;27;19916;-56